createdAt,value
2018-01-25T18:05:32.423Z,85.90
2018-01-25T18:08:00.060Z,85.93
2018-01-25T18:10:27.505Z,86.09
2018-01-25T18:12:54.949Z,86.54
2018-01-25T18:15:22.790Z,86.55
2018-01-25T18:17:50.391Z,86.24
2018-01-25T18:20:17.922Z,86.86
2018-01-25T18:22:45.369Z,87.09
2018-01-25T18:25:13.933Z,87.05
2018-01-25T18:27:42.111Z,87.12
2018-01-25T18:30:10.457Z,87.19
2018-01-25T18:32:37.917Z,87.27
2018-01-25T18:35:05.364Z,86.50
2018-01-25T18:37:32.811Z,84.95
2018-01-25T18:40:00.326Z,83.18
2018-01-25T18:42:27.845Z,83.46
2018-01-25T18:44:57.338Z,82.90
2018-01-25T18:47:27.745Z,83.44
2018-01-25T18:49:55.939Z,81.87
2018-01-25T18:52:23.818Z,83.17
2018-01-25T18:54:52.242Z,82.19
2018-01-25T18:57:19.731Z,82.97
2018-01-25T18:59:50.414Z,82.27
2018-01-25T19:02:17.883Z,81.35
2018-01-25T19:04:45.488Z,81.77
2018-01-25T19:07:13.012Z,81.36
2018-01-25T19:09:40.443Z,79.99
2018-01-25T19:12:07.915Z,82.21
2018-01-25T19:14:35.392Z,80.79
2018-01-25T19:17:02.861Z,80.99
2018-01-25T19:19:30.296Z,80.66
2018-01-25T19:21:57.761Z,80.52
2018-01-25T19:24:26.208Z,79.21
2018-01-25T19:26:53.697Z,81.42
2018-01-25T19:29:21.181Z,81.40
2018-01-25T19:31:48.636Z,79.00
2018-01-25T19:34:16.074Z,80.00
2018-01-25T19:36:43.526Z,79.41
2018-01-25T19:39:11.089Z,80.98
2018-01-25T19:41:38.528Z,78.34
2018-01-25T19:44:05.984Z,80.09
2018-01-25T19:46:33.408Z,79.95
2018-01-25T19:49:02.099Z,80.48
2018-01-25T19:51:29.533Z,81.26
2018-01-25T19:54:09.963Z,79.60
2018-01-25T19:56:52.256Z,80.89
2018-01-25T19:59:19.808Z,81.01
2018-01-25T20:04:40.013Z,78.55
2018-01-25T20:07:07.453Z,78.04
2018-01-25T20:09:36.110Z,79.56
2018-01-25T20:12:03.554Z,80.14
2018-01-25T20:14:31.012Z,79.01
2018-01-25T20:16:58.525Z,81.22
2018-01-25T20:19:26.035Z,81.74
2018-01-25T20:21:53.482Z,81.21
2018-01-25T20:24:20.941Z,81.74
2018-01-25T20:26:48.418Z,82.95
2018-01-25T20:29:15.993Z,83.04
2018-01-25T20:31:43.434Z,83.02
2018-01-25T20:34:11.164Z,83.77
2018-01-25T20:36:38.668Z,83.90
2018-01-25T20:39:06.107Z,84.30
2018-01-25T20:41:33.697Z,83.97
2018-01-25T20:44:01.701Z,84.03
2018-01-25T20:46:29.152Z,84.23
2018-01-25T20:48:56.601Z,84.59
2018-01-25T20:51:24.062Z,84.61
2018-01-25T20:53:51.513Z,85.20
2018-01-25T20:56:19.046Z,84.68
2018-01-25T20:58:46.519Z,87.75
2018-01-25T21:01:14.270Z,87.69
2018-01-25T21:03:41.729Z,87.22
2018-01-25T21:06:09.233Z,100.00
2018-01-25T21:08:36.740Z,100.00
2018-01-25T21:11:07.707Z,85.97
2018-01-25T21:13:35.193Z,86.21
2018-01-25T21:16:02.674Z,86.70
2018-01-25T21:18:30.180Z,86.82
2018-01-25T21:20:59.405Z,86.94
2018-01-25T21:23:26.848Z,86.50
2018-01-25T21:25:57.060Z,86.53
2018-01-25T21:28:24.628Z,86.69
2018-01-25T21:30:53.411Z,86.71
2018-01-25T21:33:23.586Z,87.03
2018-01-25T21:35:51.578Z,86.54
2018-01-25T21:38:19.113Z,86.72
2018-01-25T21:40:46.586Z,86.19
2018-01-25T21:43:14.185Z,86.46
2018-01-25T21:45:41.614Z,85.50
2018-01-25T21:48:09.083Z,86.15
2018-01-25T21:50:36.541Z,86.16
2018-01-25T21:53:04.005Z,86.65
2018-01-25T21:55:31.429Z,86.81
2018-01-25T21:57:58.953Z,86.75
2018-01-25T22:00:26.417Z,86.36
2018-01-25T22:02:53.932Z,86.50
2018-01-25T22:05:21.574Z,86.73
2018-01-25T22:07:49.038Z,86.78
2018-01-25T22:10:16.543Z,86.79
2018-01-25T22:12:44.310Z,86.62
2018-01-25T22:15:12.291Z,85.86
2018-01-25T22:17:42.695Z,86.57
2018-01-25T22:20:10.419Z,86.73
2018-01-25T22:22:38.066Z,86.51
2018-01-25T22:25:07.234Z,86.45
2018-01-25T22:27:34.804Z,86.19
2018-01-25T22:30:02.270Z,86.12
2018-01-25T22:32:29.705Z,86.80
2018-01-25T22:34:57.187Z,86.56
2018-01-25T22:37:24.688Z,86.12
2018-01-25T22:39:52.352Z,86.24
2018-01-25T22:42:20.356Z,86.49
2018-01-25T22:44:47.828Z,86.70
2018-01-25T22:47:15.312Z,87.19
2018-01-25T22:49:42.987Z,86.63
2018-01-25T22:52:10.436Z,86.89
2018-01-25T22:54:37.954Z,87.26
2018-01-25T22:57:05.655Z,87.77
2018-01-25T22:59:33.380Z,88.03
2018-01-25T23:02:05.589Z,87.90
2018-01-25T23:04:33.541Z,88.21
2018-01-25T23:07:01.307Z,88.63
2018-01-25T23:09:28.797Z,89.19
2018-01-25T23:11:56.634Z,88.62
2018-01-25T23:14:24.352Z,88.47
2018-01-25T23:16:51.942Z,88.62
2018-01-25T23:19:19.464Z,88.34
2018-01-25T23:21:47.087Z,87.87
2018-01-25T23:24:17.053Z,87.49
2018-01-25T23:26:48.390Z,87.94
2018-01-25T23:29:17.300Z,88.11
2018-01-25T23:31:47.652Z,88.21
2018-01-25T23:34:17.439Z,88.31
2018-01-25T23:36:48.022Z,88.14
2018-01-25T23:39:15.776Z,100.00
2018-01-25T23:41:43.349Z,100.00
2018-01-25T23:44:10.850Z,87.62
2018-01-25T23:46:39.932Z,88.90
2018-01-25T23:49:09.722Z,91.48
2018-01-25T23:51:37.601Z,93.47
2018-01-25T23:54:06.113Z,93.54
2018-01-25T23:56:33.935Z,97.58
2018-01-25T23:59:01.984Z,98.01
